Time;durP1;ratioP1;P1;durP2;ratioP2;P2;SDS_P1;SDS_P2;PMS_P1;PMS_P2;Temp;Humidity;BMP_temperature;BMP_pressure;BME280_temperature;BME280_humidity;BME280_pressure;Samples;Min_cycle;Max_cycle;Signal;HPM_P1;HPM_P2
2022/08/29 00:00:24;;;;;;;11.20;4.05;;;;;;;19.57;68.76;100332.44;6011408;23;101354;-77
2022/08/29 00:02:53;;;;;;;9.93;3.88;;;;;;;19.54;69.06;100344.13;6011741;23;102289;-77
2022/08/29 00:05:20;;;;;;;9.73;4.85;;;;;;;19.38;68.88;100336.41;6035136;23;97124;-77
2022/08/29 00:07:46;;;;;;;15.93;4.65;;;;;;;19.54;68.80;100352.13;6035693;23;97268;-77
2022/08/29 00:10:12;;;;;;;8.23;3.88;;;;;;;19.55;68.84;100347.69;6010175;23;101323;-75
2022/08/29 00:12:38;;;;;;;8.77;3.90;;;;;;;19.45;68.51;100352.78;6036171;23;101311;-77
2022/08/29 00:15:06;;;;;;;7.72;3.67;;;;;;;19.43;68.68;100346.72;6037021;23;97170;-78
2022/08/29 00:17:31;;;;;;;9.18;4.28;;;;;;;19.41;68.67;100348.66;6035358;23;96849;-78
2022/08/29 00:19:57;;;;;;;8.55;4.20;;;;;;;19.45;68.64;100350.97;6059408;23;98120;-77
2022/08/29 00:22:22;;;;;;;8.68;4.10;;;;;;;19.39;68.62;100361.19;6034514;23;101231;-78
2022/08/29 00:24:48;;;;;;;7.78;3.53;;;;;;;19.40;68.56;100357.56;6060005;23;96671;-77
2022/08/29 00:27:13;;;;;;;8.63;3.45;;;;;;;19.33;68.73;100362.47;6011538;23;97475;-77
2022/08/29 00:29:39;;;;;;;7.88;3.40;;;;;;;19.30;68.79;100361.84;6012559;23;101684;-77
2022/08/29 00:32:04;;;;;;;12.35;4.57;;;;;;;19.21;68.93;100353.53;6061554;23;97257;-78
2022/08/29 00:34:30;;;;;;;16.05;3.95;;;;;;;19.32;68.45;100362.59;6035741;23;96733;-77
2022/08/29 00:36:56;;;;;;;10.60;4.53;;;;;;;19.22;68.45;100357.91;6036923;23;96979;-77
2022/08/29 00:39:21;;;;;;;9.57;3.70;;;;;;;19.35;68.42;100357.06;6036364;23;97632;-78
2022/08/29 00:41:47;;;;;;;10.05;3.75;;;;;;;19.13;68.33;100345.25;6012654;23;100549;-77
2022/08/29 00:44:12;;;;;;;8.38;3.75;;;;;;;19.25;68.88;100361.31;6037590;23;96857;-77
2022/08/29 00:46:41;;;;;;;6.93;3.38;;;;;;;19.33;68.35;100372.28;6037506;23;96698;-78
2022/08/29 00:49:28;;;;;;;10.38;4.30;;;;;;;19.17;68.77;100370.69;6061208;23;97897;-78
2022/08/29 00:51:54;;;;;;;12.32;4.32;;;;;;;19.22;68.67;100370.34;6012783;23;101363;-78
2022/08/29 00:54:21;;;;;;;11.25;4.00;;;;;;;19.08;68.97;100358.03;6036457;23;97019;-78
2022/08/29 00:56:47;;;;;;;6.32;3.50;;;;;;;19.11;68.63;100370.25;6036359;23;97184;-77
2022/08/29 00:59:15;;;;;;;12.25;4.20;;;;;;;19.05;68.87;100360.03;6011547;23;101396;-78
2022/08/29 01:01:41;;;;;;;9.05;4.30;;;;;;;19.09;68.94;100375.69;6011885;23;100749;-78
2022/08/29 01:04:08;;;;;;;15.15;4.35;;;;;;;19.11;69.13;100371.13;6012582;23;96719;-78
2022/08/29 01:06:34;;;;;;;9.23;4.07;;;;;;;18.99;69.45;100366.63;6035884;23;97301;-78
2022/08/29 01:09:01;;;;;;;9.05;3.88;;;;;;;18.96;69.40;100365.00;6036207;23;101408;-77
2022/08/29 01:14:12;;;;;;;12.65;4.30;;;;;;;18.92;69.44;100346.72;6065551;23;96674;-79
2022/08/29 01:16:38;;;;;;;13.15;3.83;;;;;;;19.08;69.53;100373.13;6037209;23;96866;-78
2022/08/29 01:19:30;;;;;;;12.98;4.45;;;;;;;19.03;69.09;100368.13;6036673;23;101643;-78
2022/08/29 01:22:02;;;;;;;10.63;3.97;;;;;;;19.03;69.32;100360.16;6060330;23;97569;-77
2022/08/29 01:24:38;;;;;;;7.55;3.55;;;;;;;19.04;69.38;100376.94;6033953;23;97009;-78
2022/08/29 01:27:04;;;;;;;9.80;4.50;;;;;;;18.93;69.48;100362.56;6036844;23;97155;-77
2022/08/29 01:29:29;;;;;;;10.20;3.75;;;;;;;18.99;69.33;100374.59;6036737;23;97859;-77
2022/08/29 01:31:55;;;;;;;9.68;4.40;;;;;;;18.96;69.36;100370.34;6036569;23;101230;-78
2022/08/29 01:34:21;;;;;;;12.82;4.57;;;;;;;18.82;69.56;100365.13;6011282;23;97323;-78
2022/08/29 01:36:54;;;;;;;8.60;4.20;;;;;;;18.83;69.30;100366.81;6037138;23;97095;-77
2022/08/29 01:39:26;;;;;;;10.85;3.88;;;;;;;19.02;69.17;100384.19;6036474;23;100882;-77
2022/08/29 01:41:53;;;;;;;10.02;4.78;;;;;;;18.88;69.07;100363.84;6013119;23;101318;-76
2022/08/29 01:44:21;;;;;;;9.45;4.07;;;;;;;18.82;69.19;100362.47;6013398;23;97305;-76
2022/08/29 01:46:49;;;;;;;10.85;4.00;;;;;;;18.97;68.79;100379.19;6012764;23;96831;-76
2022/08/29 01:49:16;;;;;;;7.68;3.95;;;;;;;18.91;69.21;100383.13;6035595;23;101388;-76
2022/08/29 01:51:41;;;;;;;14.48;4.20;;;;;;;18.90;69.13;100361.94;6036694;23;101464;-77
2022/08/29 01:54:09;;;;;;;7.57;3.60;;;;;;;18.95;69.23;100387.25;6062356;23;97337;-74
2022/08/29 01:56:39;;;;;;;9.88;3.75;;;;;;;18.93;69.21;100389.16;6036542;23;97544;-75
2022/08/29 01:59:07;;;;;;;12.85;3.83;;;;;;;18.95;69.23;100381.09;6037367;23;101421;-74
2022/08/29 02:01:38;;;;;;;9.25;3.80;;;;;;;18.98;69.16;100388.88;6036340;23;97765;-75
2022/08/29 02:04:06;;;;;;;8.65;3.30;;;;;;;19.03;69.24;100380.59;6060789;23;97226;-76
2022/08/29 02:06:32;;;;;;;10.07;4.50;;;;;;;18.95;69.07;100381.09;6012649;23;97137;-75
2022/08/29 02:08:59;;;;;;;8.85;3.72;;;;;;;18.82;69.21;100365.13;6012854;23;101370;-75
2022/08/29 02:11:24;;;;;;;8.23;4.00;;;;;;;19.00;68.96;100381.63;6035852;23;99095;-78
2022/08/29 02:13:55;;;;;;;11.27;4.18;;;;;;;18.90;69.02;100380.53;6012853;23;97117;-74
2022/08/29 02:16:23;;;;;;;9.00;3.70;;;;;;;18.94;69.11;100387.38;6036107;23;96835;-75
2022/08/29 02:18:49;;;;;;;8.20;3.53;;;;;;;18.81;68.94;100362.56;6036231;23;101741;-77
2022/08/29 02:21:17;;;;;;;8.20;3.72;;;;;;;18.74;69.06;100362.97;6036197;23;101172;-77
2022/08/29 02:23:43;;;;;;;14.02;4.65;;;;;;;18.82;69.11;100369.56;6037248;23;97276;-77
2022/08/29 02:26:09;;;;;;;12.85;4.35;;;;;;;18.84;69.25;100372.97;6037351;23;97160;-75
2022/08/29 02:28:36;;;;;;;9.02;3.80;;;;;;;18.93;68.91;100375.84;6035849;23;101519;-77
2022/08/29 02:31:02;;;;;;;8.43;3.97;;;;;;;18.83;68.98;100379.28;6037203;23;101041;-77
2022/08/29 02:33:28;;;;;;;10.52;3.78;;;;;;;18.93;68.70;100393.63;6035277;23;97316;-74
2022/08/29 02:35:53;;;;;;;12.32;4.25;;;;;;;18.87;69.13;100386.06;6037141;23;97130;-78
2022/08/29 02:38:20;;;;;;;9.13;3.83;;;;;;;18.88;69.03;100387.75;6009917;23;101905;-78
2022/08/29 02:40:47;;;;;;;10.25;4.13;;;;;;;18.85;68.90;100385.31;6011281;23;101162;-81
2022/08/29 02:43:14;;;;;;;10.27;4.15;;;;;;;18.82;68.96;100390.84;6011456;23;97242;-79
2022/08/29 02:45:40;;;;;;;10.80;5.00;;;;;;;18.74;69.14;100386.91;6037776;23;96939;-81
2022/08/29 02:48:06;;;;;;;8.05;3.65;;;;;;;18.81;69.17;100391.81;6061260;23;97581;-78
2022/08/29 02:50:32;;;;;;;7.95;4.03;;;;;;;18.78;68.81;100400.84;6035531;23;97654;-78
2022/08/29 02:52:58;;;;;;;12.00;3.97;;;;;;;18.90;69.00;100401.81;6035911;23;97332;-78
2022/08/29 02:55:24;;;;;;;9.55;4.13;;;;;;;18.88;69.00;100393.09;6012593;23;97261;-78
2022/08/29 02:57:51;;;;;;;7.68;3.80;;;;;;;18.98;68.73;100402.16;6037188;23;101380;-78
2022/08/29 03:00:24;;;;;;;10.88;4.60;;;;;;;18.89;68.79;100393.00;6011652;23;101502;-78
2022/08/29 03:02:50;;;;;;;7.85;3.72;;;;;;;18.87;68.88;100404.69;6035080;23;97308;-78
2022/08/29 03:05:17;;;;;;;13.88;4.03;;;;;;;18.87;68.95;100402.88;6035872;23;97238;-78
2022/08/29 03:07:43;;;;;;;10.10;4.38;;;;;;;18.82;68.81;100402.34;6036541;23;101369;-78
2022/08/29 03:10:10;;;;;;;9.82;4.47;;;;;;;18.85;68.84;100390.63;6012019;23;100577;-78
2022/08/29 03:12:36;;;;;;;11.85;4.20;;;;;;;18.82;68.66;100396.16;6035300;23;96944;-78
2022/08/29 03:15:05;;;;;;;9.95;4.22;;;;;;;18.78;68.74;100399.03;6036878;23;97220;-80
2022/08/29 03:17:31;;;;;;;9.63;4.28;;;;;;;18.75;69.01;100401.03;6035863;23;101059;-78
2022/08/29 03:19:57;;;;;;;12.10;5.45;;;;;;;18.71;68.81;100403.03;6061633;23;98005;-78
2022/08/29 03:22:23;;;;;;;8.93;4.07;;;;;;;18.70;68.82;100401.34;6035604;23;97457;-78
2022/08/29 03:24:49;;;;;;;9.98;4.43;;;;;;;18.66;69.02;100407.78;6013493;23;97156;-78
2022/08/29 03:27:14;;;;;;;9.70;4.68;;;;;;;18.62;69.05;100403.66;6035664;23;101200;-79
2022/08/29 03:29:40;;;;;;;13.90;5.05;;;;;;;18.65;68.93;100408.75;6012101;23;101335;-78
2022/08/29 03:32:05;;;;;;;14.27;5.15;;;;;;;18.53;69.10;100386.50;6060374;23;97378;-78
2022/08/29 03:34:31;;;;;;;12.45;4.07;;;;;;;18.54;69.34;100411.28;6035395;23;97319;-78
2022/08/29 03:36:58;;;;;;;12.55;3.95;;;;;;;18.42;69.36;100401.44;6036167;23;102030;-78
2022/08/29 03:39:23;;;;;;;9.20;4.07;;;;;;;18.43;69.33;100411.13;6011871;23;101422;-78
2022/08/29 03:41:49;;;;;;;11.52;4.70;;;;;;;18.36;69.66;100415.16;6012435;23;97551;-78
2022/08/29 03:44:14;;;;;;;17.75;4.80;;;;;;;18.31;70.08;100418.09;6061477;23;97331;-79
2022/08/29 03:46:39;;;;;;;12.43;5.20;;;;;;;18.40;70.11;100416.63;6011357;23;101663;-78
2022/08/29 03:49:06;;;;;;;14.98;5.07;;;;;;;18.37;70.06;100419.50;6013051;23;101143;-78
2022/08/29 03:51:37;;;;;;;12.52;5.03;;;;;;;18.29;70.00;100402.22;6059680;23;97233;-78
2022/08/29 03:54:03;;;;;;;15.68;5.20;;;;;;;18.32;69.95;100409.16;6061967;23;97270;-78
2022/08/29 03:56:29;;;;;;;14.55;4.88;;;;;;;18.36;70.00;100415.16;6033653;23;101333;-81
2022/08/29 03:58:55;;;;;;;13.48;4.80;;;;;;;18.20;69.91;100394.00;6035919;23;97312;-81
2022/08/29 04:01:23;;;;;;;9.10;4.55;;;;;;;18.32;69.82;100415.34;6035132;23;97771;-78
2022/08/29 04:03:49;;;;;;;10.00;4.47;;;;;;;18.29;69.57;100412.00;6012498;23;97356;-78
2022/08/29 04:06:15;;;;;;;10.43;5.00;;;;;;;18.09;69.88;100400.00;6037592;23;100953;-79
2022/08/29 04:08:41;;;;;;;12.07;4.53;;;;;;;18.20;69.85;100418.75;6037404;23;97809;-78
2022/08/29 04:11:09;;;;;;;13.35;5.22;;;;;;;18.18;70.08;100418.03;6038658;23;97324;-80
2022/08/29 04:13:35;;;;;;;13.55;6.47;;;;;;;18.20;69.98;100423.22;6036959;23;97324;-80
2022/08/29 04:16:00;;;;;;;20.05;7.68;;;;;;;18.15;69.91;100420.88;6012394;23;101734;-80
2022/08/29 04:18:26;;;;;;;16.35;7.20;;;;;;;18.16;69.98;100419.06;6035925;23;101747;-79
2022/08/29 04:21:00;;;;;;;14.05;6.00;;;;;;;18.10;70.26;100430.94;6037192;23;97072;-79
2022/08/29 04:23:26;;;;;;;11.63;4.82;;;;;;;18.10;70.39;100429.13;6012089;23;96852;-79
2022/08/29 04:25:51;;;;;;;13.77;5.65;;;;;;;18.10;69.75;100425.63;6061840;23;97419;-78
2022/08/29 04:28:17;;;;;;;12.48;5.22;;;;;;;18.18;69.85;100433.09;6036841;23;101091;-79
2022/08/29 04:30:48;;;;;;;16.58;5.00;;;;;;;18.19;69.66;100433.00;6037022;23;97139;-79
2022/08/29 04:33:13;;;;;;;;;;;;;;;18.13;70.04;100429.91;6037408;23;97282;-79
2022/08/29 04:35:39;;;;;;;10.70;5.35;;;;;;;18.11;69.98;100435.28;6036451;23;100782;-79
2022/08/29 04:38:05;;;;;;;12.98;4.65;;;;;;;18.19;70.50;100438.31;6012494;23;100809;-79
2022/08/29 04:40:31;;;;;;;9.93;5.18;;;;;;;18.26;69.72;100436.13;6035807;23;97211;-81
2022/08/29 04:42:58;;;;;;;12.88;5.55;;;;;;;18.35;69.64;100442.66;6037935;23;97406;-80
2022/08/29 04:45:24;;;;;;;13.32;4.82;;;;;;;18.50;69.26;100450.50;6037120;23;101089;-81
2022/08/29 04:47:50;;;;;;;16.77;5.45;;;;;;;18.55;69.13;100448.38;6013253;23;101489;-79
2022/08/29 04:50:19;;;;;;;14.30;5.68;;;;;;;18.43;68.57;100411.97;6012860;23;96601;-81
2022/08/29 04:52:45;;;;;;;16.42;4.85;;;;;;;18.86;68.24;100459.69;6036538;23;97286;-81
2022/08/29 04:55:12;;;;;;;10.23;4.63;;;;;;;19.00;67.55;100448.97;6012748;23;101290;-79
2022/08/29 04:57:38;;;;;;;11.63;4.95;;;;;;;19.04;67.23;100452.28;6037199;23;97426;-79
2022/08/29 05:00:10;;;;;;;11.50;4.78;;;;;;;19.35;66.71;100461.72;6036936;23;97131;-79
2022/08/29 05:02:36;;;;;;;9.00;4.45;;;;;;;19.46;66.13;100463.66;6012933;23;96803;-79
2022/08/29 05:05:02;;;;;;;12.02;4.72;;;;;;;19.61;65.80;100473.22;6012055;23;101081;-80
2022/08/29 05:07:28;;;;;;;13.40;5.15;;;;;;;19.68;65.36;100452.38;6060280;23;97982;-79
2022/08/29 05:10:03;;;;;;;13.27;5.70;;;;;;;19.77;64.90;100451.72;6037068;23;97073;-79
2022/08/29 05:12:29;;;;;;;11.13;5.00;;;;;;;19.96;64.76;100467.28;6060930;23;96974;-80
2022/08/29 05:14:55;;;;;;;11.32;4.95;;;;;;;20.07;64.79;100462.03;6013353;23;101302;-80
2022/08/29 05:17:21;;;;;;;15.23;4.80;;;;;;;20.13;64.33;100469.59;6012234;23;101269;-82
2022/08/29 05:19:48;;;;;;;10.32;4.05;;;;;;;20.25;64.07;100477.66;6036523;23;97051;-78
2022/08/29 05:22:15;;;;;;;10.90;4.93;;;;;;;20.25;63.50;100459.84;6037167;23;96908;-78
2022/08/29 05:24:40;;;;;;;12.20;4.95;;;;;;;20.43;63.84;100473.66;6035907;23;101298;-79
2022/08/29 05:27:11;;;;;;;10.88;4.78;;;;;;;20.52;63.20;100477.47;6061259;23;97461;-80
2022/08/29 05:29:39;;;;;;;8.50;4.07;;;;;;;20.61;62.84;100470.66;6035906;23;97298;-80
2022/08/29 05:32:06;;;;;;;15.13;4.90;;;;;;;20.68;62.43;100478.09;6061395;23;96882;-80
2022/08/29 05:34:31;;;;;;;7.38;4.13;;;;;;;20.76;62.14;100477.50;6036138;23;97767;-79
2022/08/29 05:36:57;;;;;;;9.45;3.60;;;;;;;20.73;61.71;100462.56;6012266;23;101374;-80
2022/08/29 05:39:23;;;;;;;9.98;4.05;;;;;;;20.88;61.57;100473.91;6060583;23;96762;-77
2022/08/29 05:41:49;;;;;;;10.35;4.43;;;;;;;21.06;61.00;100485.06;6061275;23;97046;-80
2022/08/29 05:44:14;;;;;;;7.97;3.20;;;;;;;21.17;60.16;100486.91;6037804;23;97782;-80
2022/08/29 05:46:40;;;;;;;9.15;4.47;;;;;;;21.29;60.43;100479.78;6037009;23;97341;-80
2022/08/29 05:49:05;;;;;;;9.85;4.07;;;;;;;21.48;59.95;100480.09;6037338;23;96609;-78
2022/08/29 05:51:31;;;;;;;8.98;4.07;;;;;;;21.63;59.42;100491.41;6060051;23;96633;-79
2022/08/29 05:53:57;;;;;;;10.35;3.88;;;;;;;21.74;58.82;100490.59;6012310;23;101503;-79
2022/08/29 05:56:25;;;;;;;12.40;4.20;;;;;;;21.97;58.34;100494.97;6035275;23;100892;-80
2022/08/29 05:58:50;;;;;;;12.52;4.00;;;;;;;22.11;58.00;100488.53;6061164;23;97255;-80
2022/08/29 06:01:25;;;;;;;12.15;3.85;;;;;;;22.36;56.82;100487.44;6012747;23;97176;-80
2022/08/29 06:03:50;;;;;;;7.70;3.75;;;;;;;22.56;56.77;100491.16;6061225;23;97447;-80
2022/08/29 06:06:21;;;;;;;10.35;3.83;;;;;;;22.74;56.46;100496.84;6060891;23;97533;-80
2022/08/29 06:08:48;;;;;;;14.52;4.53;;;;;;;22.96;55.21;100502.16;6036105;23;96932;-80
2022/08/29 06:11:15;;;;;;;12.73;3.83;;;;;;;23.11;55.03;100497.34;6037684;23;96773;-79
2022/08/29 06:13:40;;;;;;;7.45;3.45;;;;;;;23.35;54.26;100496.25;6035759;23;101272;-79
2022/08/29 06:16:10;;;;;;;9.50;3.35;;;;;;;23.42;53.63;100489.41;6061782;23;97474;-79
2022/08/29 06:18:35;;;;;;;8.75;3.85;;;;;;;23.89;52.89;100498.72;6010570;23;97395;-80
2022/08/29 06:21:03;;;;;;;8.80;2.97;;;;;;;24.21;51.60;100502.25;6060478;23;96967;-80
2022/08/29 06:23:29;;;;;;;14.80;3.75;;;;;;;24.41;51.06;100501.34;6036299;23;97790;-80
2022/08/29 06:25:56;;;;;;;8.60;3.33;;;;;;;24.68;50.54;100500.69;6036316;23;101070;-80
2022/08/29 06:28:21;;;;;;;7.28;3.38;;;;;;;24.87;49.39;100488.28;6034807;23;96771;-79
2022/08/29 06:30:46;;;;;;;7.93;3.22;;;;;;;25.25;49.31;100511.66;6035956;23;96779;-80
2022/08/29 06:33:12;;;;;;;10.18;3.63;;;;;;;25.51;47.89;100512.75;6035345;23;97862;-80
2022/08/29 06:35:38;;;;;;;7.88;3.70;;;;;;;25.80;47.57;100521.72;6012084;23;101303;-79
2022/08/29 06:38:04;;;;;;;5.68;3.10;;;;;;;26.24;46.55;100503.19;6035860;23;97310;-79
2022/08/29 06:40:29;;;;;;;5.78;3.10;;;;;;;26.77;46.17;100521.34;6033695;23;96884;-80
2022/08/29 06:42:55;;;;;;;7.57;3.88;;;;;;;27.57;44.22;100521.41;6035367;23;97642;-80
2022/08/29 06:45:20;;;;;;;8.65;3.58;;;;;;;28.50;42.63;100524.31;6036595;23;100812;-80
2022/08/29 06:47:46;;;;;;;7.30;3.30;;;;;;;29.06;40.74;100531.75;6035154;23;97016;-80
2022/08/29 06:50:13;;;;;;;8.70;3.55;;;;;;;30.08;39.25;100517.78;6035864;23;96860;-80
2022/08/29 06:52:39;;;;;;;7.30;3.00;;;;;;;31.00;37.49;100526.19;6035055;23;101507;-80
2022/08/29 06:55:09;;;;;;;10.65;3.72;;;;;;;31.67;36.19;100529.00;6036786;23;101820;-81
2022/08/29 06:57:35;;;;;;;7.15;3.55;;;;;;;32.56;34.46;100534.50;6035429;23;97376;-81
2022/08/29 07:00:00;;;;;;;9.95;3.47;;;;;;;33.61;32.69;100530.34;6060286;23;97184;-81
2022/08/29 07:02:26;;;;;;;4.40;2.58;;;;;;;34.51;31.61;100530.47;6034395;23;101496;-81
2022/08/29 07:04:51;;;;;;;8.23;3.20;;;;;;;34.90;30.24;100513.41;6035588;23;97938;-80
2022/08/29 07:07:17;;;;;;;6.65;3.40;;;;;;;35.17;30.22;100527.09;6035139;23;97474;-81
2022/08/29 07:09:43;;;;;;;5.07;3.17;;;;;;;36.11;29.12;100526.84;6010815;23;97517;-82
2022/08/29 07:12:08;;;;;;;9.30;3.38;;;;;;;35.32;29.80;100517.69;6034707;23;101038;-81
2022/08/29 07:14:34;;;;;;;9.68;3.22;;;;;;;34.50;30.96;100518.69;6034698;23;101136;-82
2022/08/29 07:16:59;;;;;;;8.45;3.30;;;;;;;34.73;30.61;100521.13;6010043;23;97066;-81
2022/08/29 07:19:25;;;;;;;6.68;3.13;;;;;;;34.67;30.37;100520.03;6035858;23;97162;-82
2022/08/29 07:21:52;;;;;;;7.55;3.33;;;;;;;35.37;29.67;100519.75;6060045;23;101503;-81
2022/08/29 07:24:17;;;;;;;5.75;3.10;;;;;;;36.56;28.22;100517.88;6062059;23;97479;-82
2022/08/29 07:26:43;;;;;;;8.02;3.08;;;;;;;37.17;26.63;100525.50;6035924;23;97307;-81
2022/08/29 07:29:14;;;;;;;6.95;3.65;;;;;;;37.72;26.32;100519.38;6036118;23;97035;-82
2022/08/29 07:31:40;;;;;;;6.75;3.40;;;;;;;38.56;24.69;100526.00;6035355;23;101364;-82
2022/08/29 07:34:06;;;;;;;7.53;3.53;;;;;;;38.70;24.13;100519.28;6043251;23;97867;-84
2022/08/29 07:36:32;;;;;;;5.65;3.13;;;;;;;38.29;25.67;100528.25;5983014;23;96722;-80
2022/08/29 07:38:58;;;;;;;7.43;3.58;;;;;;;39.11;24.42;100520.38;6007434;23;97075;-79
2022/08/29 07:41:24;;;;;;;5.47;3.45;;;;;;;39.70;23.42;100534.19;6007910;23;98098;-81
2022/08/29 07:43:50;;;;;;;6.22;3.20;;;;;;;40.20;23.67;100525.44;6007291;23;101511;-81
2022/08/29 07:46:17;;;;;;;8.98;3.75;;;;;;;40.79;22.92;100517.00;6031921;23;97254;-81
2022/08/29 07:48:42;;;;;;;6.82;2.92;;;;;;;41.45;23.03;100519.22;6030012;23;96937;-83
2022/08/29 07:51:10;;;;;;;6.20;2.90;;;;;;;41.69;22.62;100525.38;6008299;23;98495;-84
2022/08/29 07:53:36;;;;;;;10.82;3.72;;;;;;;41.89;22.39;100522.97;6031565;23;97323;-84
2022/08/29 07:56:11;;;;;;;8.18;4.22;;;;;;;42.11;21.91;100516.63;6006840;23;97246;-84
2022/08/29 07:58:37;;;;;;;5.72;3.03;;;;;;;42.10;23.99;100531.53;6030460;23;97203;-84
2022/08/29 08:01:03;;;;;;;9.15;3.47;;;;;;;41.89;22.61;100528.50;5984225;23;101429;-82
2022/08/29 08:03:29;;;;;;;8.10;3.20;;;;;;;42.16;21.70;100531.31;6007134;23;101099;-82
2022/08/29 08:05:55;;;;;;;10.13;3.83;;;;;;;42.21;22.49;100530.53;6008355;23;97159;-82
2022/08/29 08:08:21;;;;;;;8.35;2.97;;;;;;;42.16;22.49;100520.28;6031220;23;97075;-83
2022/08/29 08:10:46;;;;;;;8.07;3.38;;;;;;;42.34;21.71;100524.66;6006930;23;100981;-85
2022/08/29 08:13:12;;;;;;;7.60;3.05;;;;;;;41.73;22.50;100512.78;5985406;23;101017;-82
2022/08/29 08:15:38;;;;;;;8.45;3.22;;;;;;;41.91;22.50;100530.97;6031729;23;96913;-83
2022/08/29 08:18:05;;;;;;;8.05;3.42;;;;;;;41.75;22.08;100522.47;6007094;23;97358;-83
2022/08/29 08:20:30;;;;;;;8.98;3.60;;;;;;;41.75;21.74;100522.47;5982122;23;100660;-84
2022/08/29 08:22:56;;;;;;;8.38;3.25;;;;;;;40.25;23.30;100521.97;5983507;23;100916;-84
2022/08/29 08:25:22;;;;;;;6.50;3.20;;;;;;;40.34;23.08;100522.41;6031874;23;97186;-84
2022/08/29 08:27:48;;;;;;;6.25;3.72;;;;;;;41.28;21.91;100528.34;6029782;23;97405;-84
2022/08/29 08:30:14;;;;;;;5.65;3.30;;;;;;;40.14;23.55;100529.13;6004782;23;101282;-85
2022/08/29 08:32:39;;;;;;;6.55;3.45;;;;;;;41.09;22.23;100527.75;5979528;23;101627;-86
2022/08/29 08:35:05;;;;;;;9.63;3.67;;;;;;;41.21;22.25;100533.16;6034144;23;97704;-88
2022/08/29 08:37:31;;;;;;;5.05;3.17;;;;;;;41.22;22.47;100537.56;6010752;23;97173;-87
2022/08/29 08:39:57;;;;;;;6.35;3.08;;;;;;;41.02;22.87;100542.69;6034486;23;97953;-89
2022/08/29 08:42:29;;;;;;;8.50;3.65;;;;;;;41.02;22.68;100542.69;6036072;23;101467;-88
2022/08/29 08:45:06;;;;;;;6.10;3.15;;;;;;;40.88;21.70;100533.94;6036325;23;97221;-86
2022/08/29 08:47:41;;;;;;;6.82;3.67;;;;;;;40.71;22.47;100537.50;6036285;23;97048;-81
2022/08/29 08:50:32;;;;;;;6.90;3.60;;;;;;;40.86;21.99;100538.84;6010303;23;101350;-83
2022/08/29 08:53:18;;;;;;;8.02;3.50;;;;;;;41.00;22.33;100537.47;6034869;23;101136;-81
2022/08/29 08:55:47;;;;;;;6.85;3.85;;;;;;;40.79;22.31;100539.03;6034919;23;97124;-82
2022/08/29 08:58:29;;;;;;;6.15;3.20;;;;;;;40.28;22.80;100526.97;6059547;23;96689;-83
2022/08/29 09:01:09;;;;;;;8.10;4.15;;;;;;;40.78;22.31;100526.31;6057801;23;101504;-81
2022/08/29 09:04:19;;;;;;;5.97;3.15;;;;;;;40.55;22.37;100535.47;6033985;23;100710;-81
2022/08/29 09:06:57;;;;;;;8.30;3.83;;;;;;;41.22;21.47;100540.34;6084673;23;96648;-84
2022/08/29 09:09:44;;;;;;;7.25;2.90;;;;;;;41.22;21.58;100534.00;6057997;23;97076;-82
2022/08/29 09:12:33;;;;;;;4.95;3.53;;;;;;;40.44;22.60;100539.97;6034874;23;102078;-84
2022/08/29 09:15:12;;;;;;;8.30;3.50;;;;;;;40.84;21.33;100539.09;6034919;23;100772;-84
2022/08/29 09:17:52;;;;;;;5.45;3.15;;;;;;;41.23;21.30;100550.28;6034335;23;97204;-84
2022/08/29 09:20:27;;;;;;;6.90;3.60;;;;;;;41.23;21.54;100541.19;6033475;23;97172;-82
2022/08/29 09:23:16;;;;;;;4.95;3.05;;;;;;;40.78;21.46;100539.25;6057402;23;98379;-82
2022/08/29 09:25:41;;;;;;;5.45;3.30;;;;;;;40.82;21.94;100538.53;6082875;23;97250;-83
2022/08/29 09:28:08;;;;;;;5.43;3.83;;;;;;;40.44;22.32;100525.38;6032585;23;96647;-83
2022/08/29 09:30:35;;;;;;;7.18;3.67;;;;;;;40.56;22.53;100522.59;6033310;23;96961;-83
2022/08/29 09:33:07;;;;;;;5.60;3.47;;;;;;;40.35;22.53;100526.81;6058369;23;97420;-83
2022/08/29 09:35:42;;;;;;;9.20;3.30;;;;;;;40.34;21.78;100538.91;6083753;23;98488;-82
2022/08/29 09:38:20;;;;;;;6.57;3.60;;;;;;;40.13;22.56;100523.88;6057355;23;97197;-83
2022/08/29 09:41:00;;;;;;;9.10;3.47;;;;;;;39.92;21.80;100533.59;6057646;23;97296;-84
2022/08/29 09:43:45;;;;;;;7.75;3.25;;;;;;;39.82;21.45;100529.53;6034195;23;99943;-83
2022/08/29 09:46:10;;;;;;;4.78;3.42;;;;;;;39.72;21.77;100537.53;6034187;23;100986;-83
2022/08/29 09:48:38;;;;;;;7.97;3.50;;;;;;;39.31;22.51;100536.56;6056617;23;97153;-84
2022/08/29 09:51:19;;;;;;;5.35;3.47;;;;;;;39.09;22.21;100536.22;6034001;23;97377;-84
2022/08/29 09:53:45;;;;;;;4.70;3.08;;;;;;;38.93;22.67;100545.16;6056673;23;98169;-82
2022/08/29 09:56:16;;;;;;;8.13;3.38;;;;;;;37.90;23.84;100535.81;6034865;23;97930;-86
2022/08/29 09:58:42;;;;;;;5.35;3.42;;;;;;;37.42;24.48;100531.00;6009866;23;96787;-84
2022/08/29 10:01:11;;;;;;;6.47;2.92;;;;;;;36.53;24.49;100537.44;6056279;23;97023;-82
2022/08/29 10:03:41;;;;;;;4.95;3.28;;;;;;;36.28;24.98;100540.88;6034478;23;101152;-88
2022/08/29 10:06:15;;;;;;;4.85;3.40;;;;;;;35.90;25.68;100538.88;6035619;23;101327;-87
2022/08/29 10:08:43;;;;;;;6.53;3.13;;;;;;;35.58;26.12;100540.59;6035560;23;97090;-87
2022/08/29 10:11:14;;;;;;;3.95;2.42;;;;;;;35.28;26.20;100545.56;6036985;23;97109;-90
2022/08/29 10:13:50;;;;;;;6.47;3.08;;;;;;;34.83;26.25;100542.53;6062078;23;98224;-93
2022/08/29 10:16:22;;;;;;;7.15;2.90;;;;;;;34.40;26.88;100538.16;6011764;23;100314;-92
2022/08/29 10:18:52;;;;;;;5.55;2.90;;;;;;;34.10;27.41;100547.66;6032491;23;97067;-83
2022/08/29 10:21:29;;;;;;;9.05;4.00;;;;;;;33.77;28.41;100545.53;6009920;23;96963;-83
2022/08/29 10:24:23;;;;;;;6.80;3.45;;;;;;;33.35;28.88;100544.53;6033968;23;101934;-85
2022/08/29 10:27:26;;;;;;;6.13;3.30;;;;;;;33.06;28.92;100540.09;6058754;23;98469;-84
2022/08/29 10:30:06;;;;;;;6.78;2.90;;;;;;;32.31;29.70;100538.53;6058090;23;97919;-85
2022/08/29 10:32:34;;;;;;;8.13;2.95;;;;;;;32.37;29.88;100546.75;6033899;23;97488;-82
2022/08/29 10:35:08;;;;;;;5.85;2.72;;;;;;;32.03;30.99;100539.22;6084671;23;97810;-86
2022/08/29 10:38:00;;;;;;;7.97;3.08;;;;;;;31.72;30.81;100542.88;6034184;23;101157;-85
2022/08/29 10:40:36;;;;;;;6.45;3.28;;;;;;;31.09;31.84;100544.06;6030997;23;97417;-82
2022/08/29 10:43:27;;;;;;;7.53;2.90;;;;;;;30.74;32.25;100537.31;6052273;23;97154;-81
2022/08/29 10:46:13;;;;;;;5.85;2.90;;;;;;;30.78;32.30;100544.09;6031370;23;100754;-81
2022/08/29 10:48:47;;;;;;;6.03;3.13;;;;;;;30.29;32.41;100542.44;6055955;23;97355;-82
2022/08/29 10:51:45;;;;;;;6.43;3.10;;;;;;;29.96;33.16;100541.66;6081822;23;96690;-81
2022/08/29 10:54:15;;;;;;;5.00;2.88;;;;;;;29.97;33.67;100544.22;5975514;23;97328;-82
2022/08/29 10:56:45;;;;;;;4.97;2.97;;;;;;;29.77;33.52;100548.31;6054252;23;98200;-83
2022/08/29 10:59:25;;;;;;;7.03;3.25;;;;;;;29.71;34.10;100549.00;6052398;23;98064;-82
2022/08/29 11:01:58;;;;;;;5.60;2.80;;;;;;;29.51;34.31;100541.19;6054010;23;97325;-80
2022/08/29 11:04:28;;;;;;;5.60;2.72;;;;;;;29.41;34.83;100548.66;6007899;23;97290;-82
2022/08/29 11:06:54;;;;;;;5.38;2.78;;;;;;;29.22;35.39;100530.06;6028660;23;100892;-82
2022/08/29 11:09:21;;;;;;;10.20;4.13;;;;;;;29.16;35.07;100546.94;6055372;23;100941;-87
2022/08/29 11:12:02;;;;;;;5.05;2.80;;;;;;;28.85;35.12;100534.03;6059196;23;96960;-84
2022/08/29 11:14:34;;;;;;;6.40;2.60;;;;;;;28.69;35.87;100537.53;6010498;23;96868;-86
2022/08/29 11:17:03;;;;;;;5.88;2.55;;;;;;;28.65;36.01;100544.25;6059826;23;97387;-84
2022/08/29 11:19:36;;;;;;;4.97;2.35;;;;;;;28.40;36.94;100522.56;6032972;23;100480;-86
2022/08/29 11:22:09;;;;;;;6.05;3.08;;;;;;;28.51;36.64;100534.97;6057508;23;98148;-81
2022/08/29 11:24:35;;;;;;;8.25;2.50;;;;;;;28.40;36.78;100543.31;6034860;23;97280;-81
2022/08/29 11:27:24;;;;;;;6.65;3.03;;;;;;;28.34;36.67;100538.56;6034401;23;101087;-83
2022/08/29 11:30:04;;;;;;;5.57;2.47;;;;;;;28.38;36.69;100539.94;6085291;23;97402;-83